createdAt,value
2022-10-28T00:01:26.944Z,11.04
2022-10-28T00:03:57.071Z,11.03
2022-10-28T00:06:33.911Z,11.02
2022-10-28T00:09:08.337Z,11.02
2022-10-28T00:11:39.521Z,11.01
2022-10-28T00:14:08.192Z,11.01
2022-10-28T00:16:37.873Z,10.98
2022-10-28T00:19:10.545Z,10.95
2022-10-28T00:21:40.391Z,10.91
2022-10-28T00:24:10.188Z,10.87
2022-10-28T00:26:41.517Z,10.83
2022-10-28T00:29:12.412Z,10.80
2022-10-28T00:31:41.435Z,10.79
2022-10-28T00:34:18.303Z,10.78
2022-10-28T00:36:48.379Z,10.76
2022-10-28T00:39:21.802Z,10.76
2022-10-28T00:41:55.468Z,10.71
2022-10-28T00:44:51.425Z,10.73
2022-10-28T00:47:37.529Z,10.72
2022-10-28T00:50:24.043Z,10.71
2022-10-28T00:52:56.480Z,10.70
2022-10-28T00:55:26.011Z,10.69
2022-10-28T00:57:56.761Z,10.69
2022-10-28T01:03:19.086Z,10.66
2022-10-28T01:05:49.379Z,10.65
2022-10-28T01:08:17.835Z,10.64
2022-10-28T01:11:14.293Z,10.62
2022-10-28T01:14:04.685Z,10.59
2022-10-28T01:16:37.583Z,10.58
2022-10-28T01:20:00.300Z,10.56
2022-10-28T01:22:57.267Z,10.56
2022-10-28T01:25:45.213Z,10.56
2022-10-28T01:28:28.162Z,10.55
2022-10-28T01:31:15.263Z,10.53
2022-10-28T01:33:51.342Z,10.52
2022-10-28T01:36:32.129Z,10.50
2022-10-28T01:39:20.219Z,10.49
2022-10-28T01:42:00.012Z,10.47
2022-10-28T01:45:01.530Z,10.46
2022-10-28T01:47:36.542Z,10.45
2022-10-28T01:50:09.799Z,10.43
2022-10-28T01:52:40.502Z,10.42
2022-10-28T01:55:15.901Z,10.41
2022-10-28T01:57:44.100Z,10.40
2022-10-28T02:00:12.855Z,10.39
2022-10-28T02:02:42.778Z,10.38
2022-10-28T02:05:39.544Z,10.38
2022-10-28T02:08:19.905Z,10.39
2022-10-28T02:11:09.111Z,10.40
2022-10-28T02:13:53.631Z,10.41
2022-10-28T02:16:49.218Z,10.41
2022-10-28T02:19:29.010Z,10.42
2022-10-28T02:21:59.572Z,10.42
2022-10-28T02:24:39.642Z,10.42
2022-10-28T02:27:34.440Z,10.42
2022-10-28T02:30:05.255Z,10.44
2022-10-28T02:32:38.983Z,10.45
2022-10-28T02:35:17.289Z,10.45
2022-10-28T02:37:48.486Z,10.45
2022-10-28T02:40:21.865Z,10.46
2022-10-28T02:42:55.281Z,10.47
2022-10-28T02:45:29.990Z,10.48
2022-10-28T02:48:02.311Z,10.48
2022-10-28T02:50:45.325Z,10.49
2022-10-28T02:53:21.251Z,10.49
2022-10-28T02:55:54.332Z,10.50
2022-10-28T02:58:22.714Z,10.51
2022-10-28T03:00:50.925Z,10.52
2022-10-28T03:03:18.625Z,10.52
2022-10-28T03:05:46.717Z,10.54
2022-10-28T03:08:14.587Z,10.55
2022-10-28T03:10:42.165Z,10.56
2022-10-28T03:13:10.500Z,10.58
2022-10-28T03:15:38.255Z,10.59
2022-10-28T03:18:05.982Z,10.60
2022-10-28T03:20:33.856Z,10.61
2022-10-28T03:23:02.454Z,10.61
2022-10-28T03:25:30.179Z,10.62
2022-10-28T03:27:58.138Z,10.61
2022-10-28T03:30:25.958Z,10.61
2022-10-28T03:32:54.046Z,10.62
2022-10-28T03:35:22.130Z,10.62
2022-10-28T03:37:49.959Z,10.63
2022-10-28T03:40:17.574Z,10.64
2022-10-28T03:42:45.912Z,10.63
2022-10-28T03:45:13.806Z,10.64
2022-10-28T03:47:42.792Z,10.63
2022-10-28T03:50:10.847Z,10.63
2022-10-28T03:52:38.656Z,10.64
2022-10-28T03:55:06.618Z,10.64
2022-10-28T03:57:34.510Z,10.63
2022-10-28T04:00:02.583Z,10.64
2022-10-28T04:02:39.696Z,10.64
2022-10-28T04:05:07.862Z,10.63
2022-10-28T04:07:35.764Z,10.63
2022-10-28T04:10:03.962Z,10.64
2022-10-28T04:12:31.706Z,10.65
2022-10-28T04:14:59.347Z,10.65
2022-10-28T04:17:27.394Z,10.64
2022-10-28T04:19:55.344Z,10.64
2022-10-28T04:22:22.998Z,10.63
2022-10-28T04:24:51.199Z,10.62
2022-10-28T04:27:18.991Z,10.61
2022-10-28T04:29:46.776Z,10.59
2022-10-28T04:32:14.757Z,10.61
2022-10-28T04:34:42.621Z,10.61
2022-10-28T04:37:10.207Z,10.61
2022-10-28T04:39:38.023Z,10.61
2022-10-28T04:42:05.894Z,10.61
2022-10-28T04:44:33.533Z,10.63
2022-10-28T04:47:01.418Z,10.64
2022-10-28T04:49:29.326Z,10.64
2022-10-28T04:51:56.936Z,10.65
2022-10-28T04:54:25.055Z,10.66
2022-10-28T04:56:54.524Z,10.66
2022-10-28T04:59:22.187Z,10.67
2022-10-28T05:01:49.978Z,10.66
2022-10-28T05:04:17.920Z,10.65
2022-10-28T05:06:45.898Z,10.66
2022-10-28T05:09:13.938Z,10.65
2022-10-28T05:11:41.720Z,10.64
2022-10-28T05:14:09.424Z,10.63
2022-10-28T05:16:37.204Z,10.62
2022-10-28T05:19:05.141Z,10.61
2022-10-28T05:21:33.331Z,10.62
2022-10-28T05:24:01.163Z,10.61
2022-10-28T05:26:29.044Z,10.61
2022-10-28T05:28:56.890Z,10.61
2022-10-28T05:31:24.955Z,10.59
2022-10-28T05:33:52.807Z,10.58
2022-10-28T05:36:20.890Z,10.58
2022-10-28T05:38:49.919Z,10.59
2022-10-28T05:41:17.806Z,10.58
2022-10-28T05:43:45.516Z,10.58
2022-10-28T05:46:13.727Z,10.59
2022-10-28T05:48:41.439Z,10.58
2022-10-28T05:51:09.103Z,10.58
2022-10-28T05:53:36.879Z,10.57
2022-10-28T05:56:04.863Z,10.60
2022-10-28T05:58:32.986Z,10.62
2022-10-28T06:01:01.016Z,10.64
2022-10-28T06:03:31.200Z,10.68
2022-10-28T06:05:59.568Z,10.71
2022-10-28T06:08:28.989Z,10.73
2022-10-28T06:10:55.528Z,10.76
2022-10-28T06:13:23.288Z,10.79
2022-10-28T06:15:56.105Z,10.84
2022-10-28T06:18:24.080Z,10.90
2022-10-28T06:20:53.652Z,10.95
2022-10-28T06:23:22.589Z,11.03
2022-10-28T06:25:50.631Z,11.09
2022-10-28T06:28:18.318Z,11.15
2022-10-28T06:30:46.225Z,11.21
2022-10-28T06:33:14.245Z,11.29
2022-10-28T06:35:42.168Z,11.34
2022-10-28T06:38:09.911Z,11.41
2022-10-28T06:40:37.799Z,11.49
2022-10-28T06:43:06.930Z,11.58
2022-10-28T06:45:34.809Z,11.68
2022-10-28T06:48:06.553Z,11.78
2022-10-28T06:50:35.990Z,11.90
2022-10-28T06:53:04.792Z,12.02
2022-10-28T06:55:32.734Z,12.13
2022-10-28T06:58:03.276Z,12.26
2022-10-28T07:00:37.132Z,12.39
2022-10-28T07:03:06.390Z,12.53
2022-10-28T07:05:34.280Z,12.66
2022-10-28T07:08:02.156Z,12.78
2022-10-28T07:10:30.198Z,12.90
2022-10-28T07:12:58.135Z,13.02
2022-10-28T07:15:26.263Z,13.10
2022-10-28T07:17:58.484Z,13.18
2022-10-28T07:20:28.213Z,13.26
2022-10-28T07:23:00.911Z,13.34
2022-10-28T07:25:31.093Z,13.42
2022-10-28T07:28:00.889Z,13.48
2022-10-28T07:30:29.452Z,13.55
2022-10-28T07:33:01.332Z,13.62
2022-10-28T07:35:29.566Z,13.70
2022-10-28T07:37:58.482Z,13.78
2022-10-28T07:40:26.864Z,13.87
2022-10-28T07:42:55.303Z,13.94
2022-10-28T07:45:23.235Z,13.99
2022-10-28T07:47:51.385Z,14.07
2022-10-28T07:50:19.542Z,14.16
2022-10-28T07:52:47.358Z,14.25
2022-10-28T07:55:15.810Z,14.32
2022-10-28T07:57:43.540Z,14.41
2022-10-28T08:00:11.676Z,14.51
2022-10-28T08:02:40.289Z,14.62
2022-10-28T08:05:08.323Z,14.67
2022-10-28T08:07:38.679Z,14.73
2022-10-28T08:10:07.222Z,14.79
2022-10-28T08:12:34.993Z,14.89
2022-10-28T08:15:03.016Z,14.99
2022-10-28T08:17:31.101Z,15.10
2022-10-28T08:19:58.993Z,15.25
2022-10-28T08:22:27.227Z,15.37
2022-10-28T08:24:55.188Z,15.49
2022-10-28T08:27:23.428Z,15.61
2022-10-28T08:29:53.419Z,15.73
2022-10-28T08:32:21.292Z,15.84
2022-10-28T08:34:49.122Z,15.94
2022-10-28T08:37:16.938Z,16.05
2022-10-28T08:39:44.772Z,16.16
2022-10-28T08:42:34.726Z,16.29
2022-10-28T08:45:24.034Z,16.42
2022-10-28T08:48:03.844Z,16.55
2022-10-28T08:50:34.841Z,16.66
2022-10-28T08:53:55.101Z,16.74
2022-10-28T08:56:31.657Z,16.82
2022-10-28T08:59:01.471Z,16.88
2022-10-28T09:01:46.137Z,16.96
2022-10-28T09:04:32.387Z,17.05
2022-10-28T09:07:01.922Z,17.17
2022-10-28T09:09:30.574Z,17.28
2022-10-28T09:12:17.119Z,17.37
2022-10-28T09:15:18.029Z,17.49
2022-10-28T09:17:55.405Z,17.60
2022-10-28T09:20:34.040Z,17.68
2022-10-28T09:23:33.864Z,17.78
2022-10-28T09:26:24.564Z,17.92
2022-10-28T09:29:26.589Z,18.05
2022-10-28T09:32:01.626Z,18.20
2022-10-28T09:34:43.944Z,18.30
2022-10-28T09:37:28.066Z,18.40
2022-10-28T09:40:27.400Z,18.51
2022-10-28T09:43:02.055Z,18.61
2022-10-28T09:45:32.630Z,18.70
2022-10-28T09:48:14.554Z,18.81
2022-10-28T09:50:42.727Z,18.90
2022-10-28T09:53:59.538Z,19.02
2022-10-28T09:56:29.945Z,19.13
2022-10-28T09:59:01.283Z,19.24
2022-10-28T10:01:49.139Z,19.34
2022-10-28T10:04:35.788Z,19.44
2022-10-28T10:07:09.910Z,19.53
2022-10-28T10:09:57.214Z,19.66
2022-10-28T10:12:26.774Z,19.76
2022-10-28T10:15:19.176Z,19.89
2022-10-28T10:17:48.028Z,20.01
2022-10-28T10:20:17.668Z,20.12
2022-10-28T10:23:22.585Z,20.23
2022-10-28T10:26:12.510Z,20.35
2022-10-28T10:28:51.578Z,20.47
2022-10-28T10:31:26.904Z,20.58
2022-10-28T10:33:58.023Z,20.69
2022-10-28T10:36:31.594Z,20.79
2022-10-28T10:39:02.113Z,20.90
2022-10-28T10:41:47.341Z,21.01
2022-10-28T10:44:20.908Z,21.10
2022-10-28T10:47:05.792Z,21.20
2022-10-28T10:49:35.814Z,21.30
2022-10-28T10:52:28.445Z,21.39
2022-10-28T10:55:03.050Z,21.50
2022-10-28T10:57:33.510Z,21.58
2022-10-28T11:00:01.374Z,21.64
2022-10-28T11:02:36.260Z,21.72
2022-10-28T11:05:08.429Z,21.78
2022-10-28T11:07:39.999Z,21.82
2022-10-28T11:10:25.130Z,21.85
2022-10-28T11:12:58.862Z,21.90
2022-10-28T11:15:30.197Z,21.99
2022-10-28T11:18:21.052Z,22.07
2022-10-28T11:20:57.803Z,22.11
2022-10-28T11:23:49.134Z,22.21
2022-10-28T11:26:21.518Z,22.26
2022-10-28T11:29:17.751Z,22.34
2022-10-28T11:32:05.543Z,22.47
2022-10-28T11:34:57.846Z,22.59
2022-10-28T11:37:45.209Z,22.73
2022-10-28T11:40:50.287Z,22.93
2022-10-28T11:43:34.559Z,23.09
2022-10-28T11:46:24.062Z,23.24
2022-10-28T11:49:20.890Z,23.34
2022-10-28T11:52:01.049Z,23.45
2022-10-28T11:54:53.777Z,23.61
2022-10-28T11:57:38.423Z,23.80
2022-10-28T12:00:20.887Z,23.94
2022-10-28T12:03:10.091Z,24.06
2022-10-28T12:05:50.436Z,24.24
2022-10-28T12:08:52.775Z,24.42
2022-10-28T12:11:57.589Z,24.61
2022-10-28T12:14:46.699Z,24.78
2022-10-28T12:17:29.770Z,24.94
2022-10-28T12:20:03.517Z,25.08
2022-10-28T12:22:53.175Z,25.22
2022-10-28T12:25:29.180Z,25.36
2022-10-28T12:28:23.184Z,25.51
2022-10-28T12:31:18.464Z,25.71
2022-10-28T12:33:49.846Z,25.89
2022-10-28T12:36:41.962Z,26.12
2022-10-28T12:39:17.467Z,26.33
2022-10-28T12:42:22.737Z,26.48
2022-10-28T12:44:57.070Z,26.59
2022-10-28T12:47:43.552Z,26.75
2022-10-28T12:50:45.886Z,26.88
2022-10-28T12:53:44.725Z,26.96
2022-10-28T12:56:20.012Z,27.06
2022-10-28T12:59:06.694Z,27.13
2022-10-28T13:01:35.322Z,27.23
2022-10-28T13:04:04.016Z,27.27
2022-10-28T13:06:51.755Z,27.29
2022-10-28T13:09:37.946Z,27.27
2022-10-28T13:12:16.026Z,27.27
2022-10-28T13:15:30.776Z,27.30
2022-10-28T13:18:35.501Z,27.38
2022-10-28T13:21:23.948Z,27.48
2022-10-28T13:24:34.283Z,27.54
2022-10-28T13:27:04.984Z,27.57
2022-10-28T13:29:35.098Z,27.65
2022-10-28T13:32:40.822Z,27.75
2022-10-28T13:35:35.983Z,27.75
2022-10-28T13:38:10.931Z,27.76
2022-10-28T13:40:38.738Z,27.78
2022-10-28T13:43:20.753Z,27.89
2022-10-28T13:46:06.231Z,27.97
2022-10-28T13:48:43.126Z,27.99
2022-10-28T13:51:10.867Z,27.98
2022-10-28T13:53:45.256Z,27.94
2022-10-28T13:56:27.660Z,27.91
2022-10-28T13:59:03.566Z,27.85
2022-10-28T14:01:56.757Z,27.75
2022-10-28T14:04:38.618Z,27.70
2022-10-28T14:07:21.815Z,27.66
2022-10-28T14:09:52.768Z,27.59
2022-10-28T14:12:32.765Z,27.55
2022-10-28T14:15:15.479Z,27.49
2022-10-28T14:17:49.276Z,27.43
2022-10-28T14:20:41.865Z,27.33
2022-10-28T14:23:27.558Z,27.25
2022-10-28T14:25:56.133Z,27.21
2022-10-28T14:28:41.640Z,27.15
2022-10-28T14:31:39.278Z,27.11
2022-10-28T14:34:13.143Z,27.06
2022-10-28T14:36:58.727Z,27.00
2022-10-28T14:39:41.111Z,26.92
2022-10-28T14:42:27.176Z,26.83
2022-10-28T14:45:20.683Z,26.72
2022-10-28T14:48:21.483Z,26.57
2022-10-28T14:50:52.504Z,26.41
2022-10-28T14:53:27.948Z,26.26
2022-10-28T14:56:24.541Z,26.05
2022-10-28T14:58:54.966Z,25.85
2022-10-28T15:01:59.181Z,25.62
2022-10-28T15:04:28.717Z,25.39
2022-10-28T15:06:56.977Z,25.16
2022-10-28T15:09:44.156Z,24.88
2022-10-28T15:12:16.821Z,24.62
2022-10-28T15:14:52.940Z,24.36
2022-10-28T15:17:42.555Z,24.06
2022-10-28T15:20:31.969Z,23.80
2022-10-28T15:23:20.519Z,23.54
2022-10-28T15:26:08.271Z,23.27
2022-10-28T15:28:37.252Z,23.00
2022-10-28T15:31:05.270Z,22.76
2022-10-28T15:33:40.140Z,22.57
2022-10-28T15:36:23.457Z,22.37
2022-10-28T15:39:07.267Z,22.18
2022-10-28T15:41:49.268Z,22.01
2022-10-28T15:44:38.115Z,21.84
2022-10-28T15:47:24.727Z,21.69
2022-10-28T15:50:16.695Z,21.51
2022-10-28T15:52:48.142Z,21.35
2022-10-28T15:58:41.428Z,21.02
2022-10-28T16:01:35.697Z,20.88
2022-10-28T16:04:05.765Z,20.71
2022-10-28T16:06:56.916Z,20.58
2022-10-28T16:09:29.626Z,20.46
2022-10-28T16:12:01.832Z,20.33
2022-10-28T16:14:39.703Z,20.25
2022-10-28T16:17:15.669Z,20.15
2022-10-28T16:19:56.993Z,20.03
2022-10-28T16:22:27.376Z,19.92
2022-10-28T16:24:58.152Z,19.82
2022-10-28T16:27:28.648Z,19.73
2022-10-28T16:29:56.837Z,19.60
2022-10-28T16:32:47.271Z,19.47
2022-10-28T16:35:20.386Z,19.33
2022-10-28T16:37:53.763Z,19.21
2022-10-28T16:43:16.794Z,18.94
2022-10-28T16:45:44.646Z,18.82
2022-10-28T16:48:13.908Z,18.70
2022-10-28T16:50:45.130Z,18.59
2022-10-28T16:53:30.803Z,18.46
2022-10-28T16:56:01.824Z,18.35
2022-10-28T16:58:30.141Z,18.24
2022-10-28T17:01:19.941Z,18.13
2022-10-28T17:03:47.814Z,18.05
2022-10-28T17:06:15.407Z,17.97
2022-10-28T17:09:01.792Z,17.91
2022-10-28T17:14:21.374Z,17.75
2022-10-28T17:17:06.695Z,17.68
2022-10-28T17:19:52.260Z,17.60
2022-10-28T17:22:20.024Z,17.53
2022-10-28T17:24:47.630Z,17.45
2022-10-28T17:27:15.468Z,17.37
2022-10-28T17:29:43.289Z,17.30
2022-10-28T17:32:10.944Z,17.24
2022-10-28T17:34:56.775Z,17.17
2022-10-28T17:37:24.788Z,17.09
2022-10-28T17:39:52.522Z,17.02
2022-10-28T17:42:20.795Z,16.96
2022-10-28T17:44:48.726Z,16.88
2022-10-28T17:47:16.430Z,16.80
2022-10-28T17:50:02.307Z,16.72
2022-10-28T17:52:34.191Z,16.65
2022-10-28T17:55:06.685Z,16.57
2022-10-28T17:57:34.751Z,16.51
2022-10-28T18:00:20.197Z,16.42
2022-10-28T18:02:48.323Z,16.37
2022-10-28T18:05:35.974Z,16.29
2022-10-28T18:08:03.971Z,16.23
2022-10-28T18:10:57.235Z,16.17
2022-10-28T18:13:32.982Z,16.12
2022-10-28T18:16:21.926Z,16.07
2022-10-28T18:19:09.986Z,16.01
2022-10-28T18:21:38.175Z,15.96
2022-10-28T18:24:06.237Z,15.93
2022-10-28T18:26:35.986Z,15.88
2022-10-28T18:29:08.248Z,15.84
2022-10-28T18:31:37.742Z,15.80
2022-10-28T18:34:05.734Z,15.76
2022-10-28T18:36:51.941Z,15.71
2022-10-28T18:39:38.141Z,15.67
2022-10-28T18:42:24.015Z,15.62
2022-10-28T18:44:58.373Z,15.59
2022-10-28T18:47:26.320Z,15.56
2022-10-28T18:49:54.480Z,15.52
2022-10-28T18:52:24.712Z,15.48
2022-10-28T18:54:53.259Z,15.45
2022-10-28T18:57:22.128Z,15.43
2022-10-28T19:00:20.117Z,15.38
2022-10-28T19:02:42.195Z,15.34
2022-10-28T19:05:14.186Z,15.30
2022-10-28T19:07:59.307Z,15.28
2022-10-28T19:10:27.102Z,15.25
2022-10-28T19:12:54.680Z,15.22
2022-10-28T19:15:22.674Z,15.19
2022-10-28T19:17:53.213Z,15.15
2022-10-28T19:20:20.994Z,15.12
2022-10-28T19:22:48.928Z,15.09
2022-10-28T19:25:16.833Z,15.04
2022-10-28T19:27:44.506Z,14.98
2022-10-28T19:30:13.697Z,14.94
2022-10-28T19:32:41.711Z,14.90
2022-10-28T19:35:09.562Z,14.86
2022-10-28T19:37:55.294Z,14.82
2022-10-28T19:40:23.163Z,14.79
2022-10-28T19:45:26.463Z,14.78
2022-10-28T19:47:54.332Z,14.77
2022-10-28T19:50:22.309Z,14.75
2022-10-28T19:52:50.448Z,14.74
2022-10-28T19:55:18.575Z,14.71
2022-10-28T19:57:48.947Z,14.68
2022-10-28T20:00:37.461Z,14.64
2022-10-28T20:03:05.321Z,14.62
2022-10-28T20:05:59.130Z,14.59
2022-10-28T20:08:27.220Z,14.56
2022-10-28T20:11:03.815Z,14.54
2022-10-28T20:13:57.421Z,14.52
2022-10-28T20:16:25.924Z,14.49
2022-10-28T20:18:55.231Z,14.47
2022-10-28T20:21:40.992Z,14.46
2022-10-28T20:24:09.005Z,14.45
2022-10-28T20:26:38.714Z,14.44
2022-10-28T20:29:24.253Z,14.43
2022-10-28T20:31:52.413Z,14.41
2022-10-28T20:34:38.042Z,14.40
2022-10-28T20:37:06.281Z,14.37
2022-10-28T20:39:33.914Z,14.33
2022-10-28T20:42:01.604Z,14.29
2022-10-28T20:44:29.491Z,14.25
2022-10-28T20:46:57.082Z,14.22
2022-10-28T20:49:24.974Z,14.18
2022-10-28T20:51:52.736Z,14.14
2022-10-28T20:54:20.333Z,14.09
2022-10-28T20:57:06.025Z,14.07
2022-10-28T20:59:33.831Z,14.04
2022-10-28T21:02:01.675Z,14.01
2022-10-28T21:04:47.534Z,13.97
2022-10-28T21:07:15.476Z,13.94
2022-10-28T21:09:43.023Z,13.91
2022-10-28T21:12:10.891Z,13.89
2022-10-28T21:14:38.706Z,13.89
2022-10-28T21:17:24.480Z,13.85
2022-10-28T21:19:52.345Z,13.81
2022-10-28T21:22:20.022Z,13.77
2022-10-28T21:24:47.983Z,13.76
2022-10-28T21:27:15.852Z,13.74
2022-10-28T21:30:01.638Z,13.70
2022-10-28T21:32:29.408Z,13.67
2022-10-28T21:34:56.998Z,13.63
2022-10-28T21:37:24.788Z,13.60
2022-10-28T21:40:10.994Z,13.56
2022-10-28T21:42:56.494Z,13.53
2022-10-28T21:45:41.833Z,13.48
2022-10-28T21:48:10.083Z,13.45
2022-10-28T21:50:37.657Z,13.40
2022-10-28T21:53:05.285Z,13.35
2022-10-28T21:55:45.947Z,13.30
2022-10-28T21:58:32.652Z,13.25
2022-10-28T22:01:10.101Z,13.27
2022-10-28T22:03:38.675Z,13.28
2022-10-28T22:06:07.379Z,13.29
2022-10-28T22:08:35.087Z,13.28
2022-10-28T22:11:05.031Z,13.29
2022-10-28T22:13:34.343Z,13.30
2022-10-28T22:16:04.846Z,13.31
2022-10-28T22:18:50.575Z,13.31
2022-10-28T22:21:24.321Z,13.30
2022-10-28T22:23:52.388Z,13.31
2022-10-28T22:26:22.557Z,13.31
2022-10-28T22:28:51.012Z,13.32
2022-10-28T22:31:36.267Z,13.34
2022-10-28T22:34:05.613Z,13.37
2022-10-28T22:36:33.270Z,13.40
2022-10-28T22:39:01.086Z,13.42
2022-10-28T22:41:31.431Z,13.43
2022-10-28T22:44:02.609Z,13.45
2022-10-28T22:46:36.849Z,13.45
2022-10-28T22:49:04.686Z,13.43
2022-10-28T22:51:33.197Z,13.41
2022-10-28T22:54:01.063Z,13.40
2022-10-28T22:56:28.930Z,13.41
2022-10-28T22:59:14.031Z,13.43
2022-10-28T23:01:41.807Z,13.45
2022-10-28T23:04:11.310Z,13.48
2022-10-28T23:06:39.447Z,13.52
2022-10-28T23:09:24.592Z,13.54
2022-10-28T23:11:52.965Z,13.55
2022-10-28T23:14:20.632Z,13.57
2022-10-28T23:16:48.965Z,13.56
2022-10-28T23:19:17.234Z,13.55
2022-10-28T23:21:44.998Z,13.55
2022-10-28T23:24:12.613Z,13.55
2022-10-28T23:26:40.634Z,13.52
2022-10-28T23:29:26.116Z,13.50
2022-10-28T23:31:53.856Z,13.48
2022-10-28T23:34:21.493Z,13.48
2022-10-28T23:36:54.002Z,13.48
2022-10-28T23:39:39.343Z,13.47
2022-10-28T23:42:07.899Z,13.44
2022-10-28T23:44:35.620Z,13.43
2022-10-28T23:47:03.732Z,13.39
2022-10-28T23:49:49.086Z,13.36
2022-10-28T23:52:34.433Z,13.33
2022-10-28T23:55:02.256Z,13.33
2022-10-28T23:57:29.904Z,13.31
2022-10-28T23:59:57.587Z,13.30
